Time;durP1;ratioP1;P1;durP2;ratioP2;P2;SDS_P1;SDS_P2;PMS_P1;PMS_P2;Temp;Humidity;BMP_temperature;BMP_pressure;BME280_temperature;BME280_humidity;BME280_pressure;Samples;Min_cycle;Max_cycle;Signal;HPM_P1;HPM_P2
2022/03/15 00:00:46;;;;;;;;;;;22.70;51.40;;;;;;5080028;28;1804;-41
2022/03/15 00:03:13;;;;;;;;;;;22.70;51.40;;;;;;5078878;28;1003;-40
2022/03/15 00:05:40;;;;;;;;;;;22.70;51.30;;;;;;5080158;28;1031;-44
2022/03/15 00:08:07;;;;;;;;;;;22.70;51.40;;;;;;5079958;28;956;-44
2022/03/15 00:10:35;;;;;;;;;;;22.70;51.50;;;;;;5080426;28;881;-40
2022/03/15 00:13:02;;;;;;;;;;;22.70;51.50;;;;;;5080045;28;1052;-39
2022/03/15 00:15:29;;;;;;;;;;;22.70;51.50;;;;;;5080174;28;956;-39
2022/03/15 00:17:56;;;;;;;;;;;22.70;51.30;;;;;;5079267;28;1968;-41
2022/03/15 00:20:23;;;;;;;;;;;22.70;51.30;;;;;;5079032;28;1048;-41
2022/03/15 00:22:51;;;;;;;;;;;22.70;51.20;;;;;;5079553;28;999;-40
2022/03/15 00:25:18;;;;;;;;;;;22.70;51.20;;;;;;5079452;28;997;-39
2022/03/15 00:27:47;;;;;;;;;;;22.70;51.30;;;;;;5079445;28;987;-40
2022/03/15 00:30:15;;;;;;;;;;;22.70;51.10;;;;;;5079491;28;892;-41
2022/03/15 00:32:41;;;;;;;;;;;22.70;51.20;;;;;;5079412;28;984;-41
2022/03/15 00:35:12;;;;;;;;;;;22.70;51.20;;;;;;5079766;28;965;-41
2022/03/15 00:37:39;;;;;;;;;;;22.70;51.10;;;;;;5080093;28;1901;-41
2022/03/15 00:40:07;;;;;;;;;;;22.70;51.10;;;;;;5079230;28;1004;-41
2022/03/15 00:42:34;;;;;;;;;;;22.80;51.00;;;;;;5079793;28;1022;-41
2022/03/15 00:45:03;;;;;;;;;;;22.70;51.00;;;;;;5079511;28;999;-40
2022/03/15 00:47:30;;;;;;;;;;;22.70;51.20;;;;;;5079295;28;1080;-41
2022/03/15 00:49:57;;;;;;;;;;;22.70;51.10;;;;;;5079564;28;947;-40
2022/03/15 00:52:23;;;;;;;;;;;22.70;51.10;;;;;;5078864;28;956;-41
2022/03/15 00:54:50;;;;;;;;;;;22.70;51.10;;;;;;5078773;28;1024;-41
2022/03/15 00:57:18;;;;;;;;;;;22.70;51.20;;;;;;5079539;28;1894;-41
2022/03/15 00:59:44;;;;;;;;;;;22.70;51.20;;;;;;5079165;28;937;-41
2022/03/15 01:02:12;;;;;;;;;;;22.70;51.10;;;;;;5078780;28;980;-43
2022/03/15 01:04:39;;;;;;;;;;;22.70;52.30;;;;;;5077830;28;980;-41
2022/03/15 01:07:06;;;;;;;;;;;22.70;51.30;;;;;;5078132;28;1007;-43
2022/03/15 01:09:34;;;;;;;;;;;22.70;51.10;;;;;;5078247;28;968;-42
2022/03/15 01:12:00;;;;;;;;;;;22.70;51.30;;;;;;5078535;28;1016;-42
2022/03/15 01:14:27;;;;;;;;;;;22.70;51.20;;;;;;5075753;28;936;-43
2022/03/15 01:16:55;;;;;;;;;;;22.70;51.20;;;;;;5076950;28;1979;-42
2022/03/15 01:19:23;;;;;;;;;;;22.60;51.10;;;;;;5076930;28;937;-41
2022/03/15 01:21:51;;;;;;;;;;;22.60;51.10;;;;;;5076531;28;1010;-41
2022/03/15 01:24:18;;;;;;;;;;;22.70;51.40;;;;;;5077941;28;1016;-41
2022/03/15 01:26:45;;;;;;;;;;;22.60;51.10;;;;;;5077588;28;1000;-41
2022/03/15 01:29:12;;;;;;;;;;;22.70;51.20;;;;;;5077492;28;972;-41
2022/03/15 01:31:39;;;;;;;;;;;22.60;51.10;;;;;;5076380;28;1010;-42
2022/03/15 01:34:05;;;;;;;;;;;22.60;51.20;;;;;;5076063;28;989;-42
2022/03/15 01:36:34;;;;;;;;;;;22.60;51.20;;;;;;5078349;28;943;-41
2022/03/15 01:39:01;;;;;;;;;;;22.70;51.00;;;;;;5078596;28;1941;-41
2022/03/15 01:41:28;;;;;;;;;;;22.70;51.00;;;;;;5077734;28;1035;-41
2022/03/15 01:43:54;;;;;;;;;;;22.70;52.10;;;;;;5078606;28;947;-41
2022/03/15 01:46:21;;;;;;;;;;;22.70;50.80;;;;;;5077917;28;960;-42
2022/03/15 01:48:48;;;;;;;;;;;22.70;50.80;;;;;;5077552;28;1028;-41
2022/03/15 01:51:16;;;;;;;;;;;22.70;50.90;;;;;;5077151;28;881;-41
2022/03/15 01:53:45;;;;;;;;;;;22.70;51.00;;;;;;5078452;28;912;-41
2022/03/15 01:56:11;;;;;;;;;;;22.70;51.10;;;;;;5077234;28;897;-41
2022/03/15 01:58:38;;;;;;;;;;;22.60;51.00;;;;;;5078123;28;1972;-41
2022/03/15 02:01:05;;;;;;;;;;;22.60;50.90;;;;;;5077355;28;1019;-41
2022/03/15 02:03:32;;;;;;;;;;;22.70;51.00;;;;;;5078007;28;1311;-42
2022/03/15 02:06:01;;;;;;;;;;;22.60;50.90;;;;;;5077462;28;1015;-43
2022/03/15 02:08:27;;;;;;;;;;;22.60;51.00;;;;;;5077969;28;1023;-41
2022/03/15 02:10:55;;;;;;;;;;;22.60;51.00;;;;;;5077932;28;1004;-41
2022/03/15 02:13:23;;;;;;;;;;;22.60;51.00;;;;;;5078191;28;956;-41
2022/03/15 02:15:51;;;;;;;;;;;22.60;51.10;;;;;;5077347;28;978;-41
2022/03/15 02:18:19;;;;;;;;;;;22.60;51.10;;;;;;5077530;28;1992;-41
2022/03/15 02:20:47;;;;;;;;;;;22.50;51.00;;;;;;5077378;28;1429;-41
2022/03/15 02:23:14;;;;;;;;;;;22.60;51.00;;;;;;5077455;28;915;-42
2022/03/15 02:25:41;;;;;;;;;;;22.60;51.00;;;;;;5076879;28;998;-42
2022/03/15 02:28:08;;;;;;;;;;;22.60;51.10;;;;;;5077590;28;941;-41
2022/03/15 02:30:34;;;;;;;;;;;22.50;50.90;;;;;;5077535;28;888;-41
2022/03/15 02:33:01;;;;;;;;;;;22.50;51.00;;;;;;5076998;28;1007;-41
2022/03/15 02:35:28;;;;;;;;;;;22.50;50.90;;;;;;5077339;28;940;-42
2022/03/15 02:37:56;;;;;;;;;;;22.60;51.10;;;;;;5077117;28;1969;-41
2022/03/15 02:40:23;;;;;;;;;;;22.60;51.00;;;;;;5076605;28;1016;-43
2022/03/15 02:42:50;;;;;;;;;;;22.50;51.10;;;;;;5077488;28;999;-41
2022/03/15 02:45:17;;;;;;;;;;;22.50;51.50;;;;;;5076253;28;956;-42
2022/03/15 02:47:47;;;;;;;;;;;22.50;51.10;;;;;;5076423;28;1127;-40
2022/03/15 02:50:14;;;;;;;;;;;22.50;51.00;;;;;;5076441;28;999;-41
2022/03/15 02:52:41;;;;;;;;;;;22.50;51.00;;;;;;5076673;28;980;-42
2022/03/15 02:55:10;;;;;;;;;;;22.50;51.00;;;;;;5076424;28;1011;-39
2022/03/15 02:57:36;;;;;;;;;;;22.50;51.00;;;;;;5076632;28;1902;-41
2022/03/15 03:00:04;;;;;;;;;;;22.50;51.00;;;;;;5077157;28;949;-41
2022/03/15 03:02:32;;;;;;;;;;;22.50;50.90;;;;;;5077400;28;945;-41
2022/03/15 03:04:59;;;;;;;;;;;22.50;51.00;;;;;;5076471;28;944;-43
2022/03/15 03:07:26;;;;;;;;;;;22.50;51.00;;;;;;5076110;28;1004;-49
2022/03/15 03:09:53;;;;;;;;;;;22.50;51.00;;;;;;5076877;28;977;-41
2022/03/15 03:15:35;;;;;;;;;;;22.50;51.00;;;;;;5075941;28;643;-41
2022/03/15 03:18:01;;;;;;;;;;;22.50;51.00;;;;;;5077257;28;1898;-43
2022/03/15 03:20:29;;;;;;;;;;;22.50;51.00;;;;;;5075960;28;1011;-42
2022/03/15 03:22:58;;;;;;;;;;;22.50;51.00;;;;;;5076805;28;980;-46
2022/03/15 03:25:30;;;;;;;;;;;22.40;51.00;;;;;;5076074;28;937;-41
2022/03/15 03:27:57;;;;;;;;;;;22.50;52.30;;;;;;5076153;28;1120;-43
2022/03/15 03:30:25;;;;;;;;;;;22.50;51.10;;;;;;5076405;28;977;-41
2022/03/15 03:32:53;;;;;;;;;;;22.50;51.10;;;;;;5075805;28;1020;-41
2022/03/15 03:35:20;;;;;;;;;;;22.50;51.10;;;;;;5076000;28;960;-41
2022/03/15 03:37:46;;;;;;;;;;;22.50;51.00;;;;;;5077925;28;1991;-40
2022/03/15 03:40:13;;;;;;;;;;;22.40;51.10;;;;;;5079362;28;984;-41
2022/03/15 03:42:40;;;;;;;;;;;22.40;51.10;;;;;;5080927;28;997;-41
2022/03/15 03:45:07;;;;;;;;;;;22.40;51.10;;;;;;5080213;28;1004;-41
2022/03/15 03:47:34;;;;;;;;;;;22.50;51.10;;;;;;5079184;28;1207;-41
2022/03/15 03:50:04;;;;;;;;;;;22.40;51.10;;;;;;5079311;28;968;-41
2022/03/15 03:52:31;;;;;;;;;;;22.40;51.00;;;;;;5079345;28;1020;-41
2022/03/15 03:54:58;;;;;;;;;;;22.40;51.10;;;;;;5079968;28;936;-41
2022/03/15 03:57:25;;;;;;;;;;;22.40;51.10;;;;;;5079030;28;963;-42
2022/03/15 03:59:51;;;;;;;;;;;22.40;51.00;;;;;;5078850;28;1973;-40
2022/03/15 04:02:18;;;;;;;;;;;22.40;51.00;;;;;;5079856;28;981;-41
2022/03/15 04:04:47;;;;;;;;;;;22.40;51.10;;;;;;5079048;28;1035;-41
2022/03/15 04:07:15;;;;;;;;;;;22.40;51.10;;;;;;5079821;28;986;-41
2022/03/15 04:09:42;;;;;;;;;;;22.40;50.90;;;;;;5079442;28;940;-41
2022/03/15 04:12:08;;;;;;;;;;;22.40;50.90;;;;;;5079183;28;900;-41
2022/03/15 04:14:35;;;;;;;;;;;22.40;50.90;;;;;;5079596;28;976;-41
2022/03/15 04:17:02;;;;;;;;;;;22.40;50.90;;;;;;5079980;28;985;-39
2022/03/15 04:19:29;;;;;;;;;;;22.40;50.90;;;;;;5078823;28;1977;-41
2022/03/15 04:21:56;;;;;;;;;;;22.40;50.90;;;;;;5080146;28;1004;-41
2022/03/15 04:24:24;;;;;;;;;;;22.40;51.00;;;;;;5079721;28;1027;-40
2022/03/15 04:26:51;;;;;;;;;;;22.40;51.00;;;;;;5079165;28;1829;-41
2022/03/15 04:29:18;;;;;;;;;;;22.40;50.90;;;;;;5078814;28;873;-41
2022/03/15 04:31:45;;;;;;;;;;;22.40;51.00;;;;;;5079489;28;1009;-44
2022/03/15 04:34:12;;;;;;;;;;;22.40;51.10;;;;;;5079645;28;977;-42
2022/03/15 04:36:40;;;;;;;;;;;22.40;51.10;;;;;;5079882;28;996;-40
2022/03/15 04:39:07;;;;;;;;;;;22.40;51.10;;;;;;5079352;28;1977;-41
2022/03/15 04:41:35;;;;;;;;;;;22.40;51.10;;;;;;5078951;28;972;-41
2022/03/15 04:44:02;;;;;;;;;;;22.30;51.00;;;;;;5079424;28;984;-41
2022/03/15 04:46:29;;;;;;;;;;;22.40;51.10;;;;;;5079024;28;961;-41
2022/03/15 04:48:56;;;;;;;;;;;22.30;51.10;;;;;;5078394;28;1357;-41
2022/03/15 04:51:24;;;;;;;;;;;22.40;51.10;;;;;;5079419;28;1007;-40
2022/03/15 04:53:52;;;;;;;;;;;22.40;51.10;;;;;;5078662;28;1023;-40
2022/03/15 04:56:19;;;;;;;;;;;22.40;51.10;;;;;;5079003;28;972;-41
2022/03/15 04:58:47;;;;;;;;;;;22.30;51.10;;;;;;5079162;28;1989;-43
2022/03/15 05:01:14;;;;;;;;;;;22.30;51.10;;;;;;5078412;28;991;-41
2022/03/15 05:03:41;;;;;;;;;;;22.40;51.10;;;;;;5079196;28;1019;-41
2022/03/15 05:06:08;;;;;;;;;;;22.40;51.10;;;;;;5078360;28;1000;-42
2022/03/15 05:08:35;;;;;;;;;;;22.40;51.10;;;;;;5078128;28;952;-41
2022/03/15 05:11:08;;;;;;;;;;;22.30;51.00;;;;;;5078330;28;968;-42
2022/03/15 05:13:36;;;;;;;;;;;22.30;51.10;;;;;;5078443;28;1000;-42
2022/03/15 05:16:05;;;;;;;;;;;22.30;51.10;;;;;;5078265;28;1171;-42
2022/03/15 05:18:31;;;;;;;;;;;22.30;51.10;;;;;;5078600;28;1902;-44
2022/03/15 05:20:58;;;;;;;;;;;22.40;51.10;;;;;;5078554;28;929;-42
2022/03/15 05:23:25;;;;;;;;;;;22.30;51.10;;;;;;5077688;28;980;-42
2022/03/15 05:25:52;;;;;;;;;;;22.30;51.10;;;;;;5077392;28;954;-40
2022/03/15 05:28:19;;;;;;;;;;;22.30;51.00;;;;;;5077192;28;1016;-41
2022/03/15 05:30:46;;;;;;;;;;;22.30;51.10;;;;;;5077858;28;1017;-40
2022/03/15 05:33:14;;;;;;;;;;;22.30;51.10;;;;;;5076509;28;1145;-41
2022/03/15 05:35:41;;;;;;;;;;;22.30;51.10;;;;;;5075746;28;876;-40
2022/03/15 05:38:08;;;;;;;;;;;22.30;51.10;;;;;;5076454;28;1148;-41
2022/03/15 05:40:35;;;;;;;;;;;22.30;51.10;;;;;;5077543;28;1898;-40
2022/03/15 05:43:02;;;;;;;;;;;22.30;51.10;;;;;;5075363;28;1162;-41
2022/03/15 05:45:29;;;;;;;;;;;22.30;51.20;;;;;;5076805;28;910;-42
2022/03/15 05:47:56;;;;;;;;;;;22.30;51.10;;;;;;5075554;28;1080;-44
2022/03/15 05:50:24;;;;;;;;;;;22.30;51.20;;;;;;5075618;28;1005;-40
2022/03/15 05:52:51;;;;;;;;;;;22.30;51.10;;;;;;5073606;28;1329;-40
2022/03/15 05:55:17;;;;;;;;;;;22.30;51.10;;;;;;5074304;28;984;-41
2022/03/15 05:57:44;;;;;;;;;;;22.30;51.10;;;;;;5074053;28;916;-40
2022/03/15 06:00:12;;;;;;;;;;;22.30;51.10;;;;;;5073697;28;1991;-41
2022/03/15 06:02:39;;;;;;;;;;;22.30;51.10;;;;;;5075369;28;971;-41
2022/03/15 06:05:06;;;;;;;;;;;22.30;51.10;;;;;;5075326;28;877;-41
2022/03/15 06:07:34;;;;;;;;;;;22.30;51.00;;;;;;5075500;28;1004;-41
2022/03/15 06:10:01;;;;;;;;;;;22.30;51.10;;;;;;5075134;28;980;-42
2022/03/15 06:12:28;;;;;;;;;;;22.30;51.10;;;;;;5075417;28;1002;-41
2022/03/15 06:14:55;;;;;;;;;;;22.30;51.10;;;;;;5075332;28;1484;-42
2022/03/15 06:17:21;;;;;;;;;;;22.30;51.10;;;;;;5074570;28;965;-42
2022/03/15 06:19:48;;;;;;;;;;;22.30;51.00;;;;;;5074196;28;1992;-42
2022/03/15 06:22:15;;;;;;;;;;;22.30;50.90;;;;;;5074425;28;888;-42
2022/03/15 06:24:43;;;;;;;;;;;22.30;51.00;;;;;;5074271;28;1074;-41
2022/03/15 06:27:10;;;;;;;;;;;22.30;51.00;;;;;;5075059;28;1019;-44
2022/03/15 06:29:37;;;;;;;;;;;22.30;51.00;;;;;;5072906;28;706;-41
2022/03/15 06:32:04;;;;;;;;;;;22.30;51.00;;;;;;5073632;28;1007;-41
2022/03/15 06:34:31;;;;;;;;;;;22.30;51.00;;;;;;5074008;28;1056;-42
2022/03/15 06:36:59;;;;;;;;;;;22.30;51.00;;;;;;5074000;28;1017;-42
2022/03/15 06:39:25;;;;;;;;;;;22.40;50.90;;;;;;5074818;28;1906;-41
2022/03/15 06:41:54;;;;;;;;;;;22.40;50.70;;;;;;5093759;28;1002;-40
2022/03/15 06:44:21;;;;;;;;;;;22.50;50.70;;;;;;5094144;28;1951;-41
2022/03/15 06:46:48;;;;;;;;;;;22.40;50.70;;;;;;5093803;28;956;-41
2022/03/15 06:49:14;;;;;;;;;;;22.40;51.00;;;;;;5094131;28;1094;-41
2022/03/15 06:51:42;;;;;;;;;;;22.40;51.10;;;;;;5094472;28;993;-42
2022/03/15 06:54:08;;;;;;;;;;;22.40;51.10;;;;;;5093708;28;1678;-41
2022/03/15 06:56:39;;;;;;;;;;;22.50;51.10;;;;;;5095051;28;990;-41
2022/03/15 06:59:08;;;;;;;;;;;22.50;51.00;;;;;;5095601;28;1894;-41
2022/03/15 07:01:34;;;;;;;;;;;22.50;51.00;;;;;;5091778;28;1061;-41
2022/03/15 07:04:01;;;;;;;;;;;22.40;51.10;;;;;;5096157;28;984;-42
2022/03/15 07:06:28;;;;;;;;;;;22.40;51.10;;;;;;5095362;28;1027;-42
2022/03/15 07:08:55;;;;;;;;;;;22.50;51.20;;;;;;5095182;28;936;-42
2022/03/15 07:11:21;;;;;;;;;;;22.50;51.00;;;;;;5095982;28;1016;-47
2022/03/15 07:13:48;;;;;;;;;;;22.50;51.20;;;;;;5098496;28;1014;-42
2022/03/15 07:16:16;;;;;;;;;;;22.40;51.20;;;;;;5099721;28;979;-42
2022/03/15 07:18:43;;;;;;;;;;;22.40;51.30;;;;;;5098774;28;1007;-42
2022/03/15 07:21:10;;;;;;;;;;;22.40;51.10;;;;;;5099563;28;1961;-42
2022/03/15 07:23:36;;;;;;;;;;;22.40;51.10;;;;;;5099853;28;1002;-42
2022/03/15 07:26:03;;;;;;;;;;;22.40;51.00;;;;;;5099303;28;960;-42
2022/03/15 07:28:31;;;;;;;;;;;22.40;50.90;;;;;;5097742;28;967;-46
2022/03/15 07:30:57;;;;;;;;;;;22.40;51.10;;;;;;5099011;28;947;-41
2022/03/15 07:33:26;;;;;;;;;;;22.40;51.00;;;;;;5098571;28;1003;-42
2022/03/15 07:35:52;;;;;;;;;;;22.40;50.90;;;;;;5098617;28;1827;-42
2022/03/15 07:38:19;;;;;;;;;;;22.40;52.10;;;;;;5099269;28;1062;-43
2022/03/15 07:40:46;;;;;;;;;;;22.40;50.90;;;;;;5098817;28;1894;-42
2022/03/15 07:43:13;;;;;;;;;;;22.40;50.90;;;;;;5099590;28;936;-44
2022/03/15 07:45:40;;;;;;;;;;;22.40;50.90;;;;;;5099188;28;1011;-42
2022/03/15 07:48:07;;;;;;;;;;;22.40;50.80;;;;;;5098259;28;1128;-42
2022/03/15 07:50:36;;;;;;;;;;;22.40;50.80;;;;;;5098904;28;927;-42
2022/03/15 07:53:03;;;;;;;;;;;22.40;50.90;;;;;;5099053;28;992;-45
2022/03/15 07:55:29;;;;;;;;;;;22.40;51.90;;;;;;5099304;28;980;-46
2022/03/15 07:57:56;;;;;;;;;;;22.40;51.10;;;;;;5098906;28;1005;-41
2022/03/15 08:00:23;;;;;;;;;;;22.40;50.70;;;;;;5097481;28;1988;-42
2022/03/15 08:02:52;;;;;;;;;;;22.40;50.70;;;;;;5098080;28;944;-44
2022/03/15 08:05:19;;;;;;;;;;;22.50;50.70;;;;;;5097879;28;999;-45
2022/03/15 08:07:47;;;;;;;;;;;22.40;50.70;;;;;;5098072;28;1049;-42
2022/03/15 08:10:14;;;;;;;;;;;22.40;50.70;;;;;;5097031;28;936;-41
2022/03/15 08:12:41;;;;;;;;;;;22.40;50.70;;;;;;5097192;28;996;-46
2022/03/15 08:15:09;;;;;;;;;;;22.40;50.80;;;;;;5097881;28;1012;-42
2022/03/15 08:17:36;;;;;;;;;;;22.40;50.70;;;;;;5095303;28;872;-43
2022/03/15 08:20:03;;;;;;;;;;;22.40;50.70;;;;;;5095046;28;1897;-42
2022/03/15 08:22:31;;;;;;;;;;;22.50;50.70;;;;;;5096150;28;1078;-45
2022/03/15 08:24:59;;;;;;;;;;;22.50;50.60;;;;;;5095085;28;1010;-42
2022/03/15 08:27:26;;;;;;;;;;;22.50;50.70;;;;;;5095930;28;992;-42
2022/03/15 08:29:53;;;;;;;;;;;22.40;50.60;;;;;;5094513;28;1038;-44
2022/03/15 08:32:20;;;;;;;;;;;22.40;50.70;;;;;;5095851;28;1206;-44
2022/03/15 08:34:47;;;;;;;;;;;22.40;50.70;;;;;;5094220;28;952;-44
2022/03/15 08:37:14;;;;;;;;;;;22.40;50.70;;;;;;5094657;28;952;-43
2022/03/15 08:39:41;;;;;;;;;;;22.40;50.60;;;;;;5096236;28;1905;-44
2022/03/15 08:42:10;;;;;;;;;;;22.40;50.60;;;;;;5096279;28;1000;-44
2022/03/15 08:44:36;;;;;;;;;;;22.40;50.60;;;;;;5095503;28;1019;-42
2022/03/15 08:47:03;;;;;;;;;;;22.40;50.60;;;;;;5096397;28;1450;-44
2022/03/15 08:49:30;;;;;;;;;;;22.40;50.70;;;;;;5095513;28;1095;-43
2022/03/15 08:51:57;;;;;;;;;;;22.40;50.70;;;;;;5095634;28;961;-44
2022/03/15 08:54:26;;;;;;;;;;;22.40;50.60;;;;;;5095310;28;1849;-43
2022/03/15 08:56:53;;;;;;;;;;;22.40;50.60;;;;;;5094368;28;1003;-42
2022/03/15 08:59:21;;;;;;;;;;;22.40;50.60;;;;;;5096708;28;1979;-41
2022/03/15 09:01:49;;;;;;;;;;;22.40;50.60;;;;;;5095780;28;982;-43
2022/03/15 09:04:16;;;;;;;;;;;22.40;50.60;;;;;;5096373;28;1032;-42
2022/03/15 09:06:43;;;;;;;;;;;22.40;50.60;;;;;;5095549;28;939;-42
2022/03/15 09:09:10;;;;;;;;;;;22.40;50.60;;;;;;5097563;28;858;-45
2022/03/15 09:11:36;;;;;;;;;;;22.40;50.60;;;;;;5095852;28;964;-42
2022/03/15 09:14:03;;;;;;;;;;;22.40;50.60;;;;;;5095535;28;862;-42
2022/03/15 09:16:31;;;;;;;;;;;22.40;50.70;;;;;;5095453;28;1031;-42
2022/03/15 09:18:59;;;;;;;;;;;22.40;50.60;;;;;;5095391;28;909;-42
2022/03/15 09:21:26;;;;;;;;;;;22.40;50.70;;;;;;5096292;28;1894;-44
2022/03/15 09:23:55;;;;;;;;;;;22.40;50.60;;;;;;5094882;28;881;-42
2022/03/15 09:26:22;;;;;;;;;;;22.40;50.50;;;;;;5095487;28;1012;-42
2022/03/15 09:28:50;;;;;;;;;;;22.40;50.60;;;;;;5096076;28;993;-41
2022/03/15 09:31:17;;;;;;;;;;;22.40;50.60;;;;;;5095297;28;974;-43
2022/03/15 09:33:45;;;;;;;;;;;22.40;50.70;;;;;;5095037;28;1018;-43
2022/03/15 09:36:13;;;;;;;;;;;22.30;50.60;;;;;;5094684;28;1018;-42
2022/03/15 09:38:40;;;;;;;;;;;22.40;51.90;;;;;;5095019;28;937;-44
2022/03/15 09:41:07;;;;;;;;;;;22.40;50.70;;;;;;5094139;28;1975;-42
2022/03/15 09:43:35;;;;;;;;;;;22.30;50.70;;;;;;5095038;28;952;-44
2022/03/15 09:46:04;;;;;;;;;;;22.40;50.70;;;;;;5093888;28;1008;-42
2022/03/15 09:48:31;;;;;;;;;;;22.30;50.70;;;;;;5094819;28;1038;-44
2022/03/15 09:50:59;;;;;;;;;;;22.40;50.60;;;;;;5093887;28;995;-42
2022/03/15 09:53:26;;;;;;;;;;;22.30;50.70;;;;;;5096212;28;1043;-42
2022/03/15 09:55:52;;;;;;;;;;;22.30;50.70;;;;;;5094873;28;1050;-44
2022/03/15 09:58:20;;;;;;;;;;;22.30;50.60;;;;;;5094925;28;959;-42
2022/03/15 10:00:51;;;;;;;;;;;22.40;50.70;;;;;;5094196;28;1902;-44
2022/03/15 10:03:18;;;;;;;;;;;22.40;50.70;;;;;;5095504;28;944;-42
2022/03/15 10:05:44;;;;;;;;;;;22.30;51.80;;;;;;5094770;28;984;-42
2022/03/15 10:08:13;;;;;;;;;;;22.30;50.70;;;;;;5095023;28;983;-42
2022/03/15 10:10:40;;;;;;;;;;;22.30;50.80;;;;;;5095142;28;974;-43
2022/03/15 10:13:07;;;;;;;;;;;22.30;50.80;;;;;;5095366;28;964;-42
2022/03/15 10:15:33;;;;;;;;;;;22.30;50.70;;;;;;5095431;28;980;-45
2022/03/15 10:18:04;;;;;;;;;;;22.40;50.80;;;;;;5093989;28;986;-43
2022/03/15 10:20:38;;;;;;;;;;;22.30;50.90;;;;;;5094509;28;1983;-44
2022/03/15 10:23:05;;;;;;;;;;;22.30;50.90;;;;;;5094084;28;1035;-43
2022/03/15 10:25:34;;;;;;;;;;;22.30;50.80;;;;;;5095008;28;995;-42
2022/03/15 10:28:02;;;;;;;;;;;22.30;50.80;;;;;;5094867;28;932;-45
2022/03/15 10:30:30;;;;;;;;;;;22.30;50.90;;;;;;5094679;28;1198;-42
2022/03/15 10:32:58;;;;;;;;;;;22.30;50.80;;;;;;5093235;28;1028;-42
2022/03/15 10:35:26;;;;;;;;;;;22.30;51.00;;;;;;5093947;28;1058;-42
2022/03/15 10:37:53;;;;;;;;;;;22.30;50.80;;;;;;5093537;28;1007;-42
2022/03/15 10:40:31;;;;;;;;;;;22.30;50.90;;;;;;5094956;28;1894;-50
2022/03/15 10:43:05;;;;;;;;;;;22.30;50.90;;;;;;5095387;28;1034;-43
2022/03/15 10:45:31;;;;;;;;;;;22.30;50.90;;;;;;5094946;28;1101;-42
2022/03/15 10:47:58;;;;;;;;;;;22.30;50.90;;;;;;5097422;28;1120;-42
2022/03/15 10:50:25;;;;;;;;;;;22.30;50.90;;;;;;5100496;28;1011;-42
2022/03/15 10:52:53;;;;;;;;;;;22.30;51.10;;;;;;5098516;28;1777;-42
2022/03/15 10:55:22;;;;;;;;;;;22.30;51.00;;;;;;5099097;28;1004;-42
2022/03/15 10:57:51;;;;;;;;;;;22.30;51.00;;;;;;5098395;28;1094;-43
2022/03/15 11:00:20;;;;;;;;;;;22.30;51.00;;;;;;5096235;28;1911;-44
2022/03/15 11:02:49;;;;;;;;;;;22.30;50.90;;;;;;5098435;28;1003;-42
2022/03/15 11:05:27;;;;;;;;;;;22.40;50.90;;;;;;5096537;28;1017;-42
2022/03/15 11:07:54;;;;;;;;;;;22.30;50.90;;;;;;5097357;28;1019;-44
2022/03/15 11:10:21;;;;;;;;;;;22.30;50.90;;;;;;5098103;28;1061;-43
2022/03/15 11:12:58;;;;;;;;;;;22.30;50.90;;;;;;5097144;28;974;-44
2022/03/15 11:15:30;;;;;;;;;;;22.30;51.00;;;;;;5098770;28;936;-42
2022/03/15 11:17:58;;;;;;;;;;;22.30;51.00;;;;;;5098736;28;993;-44
2022/03/15 11:20:25;;;;;;;;;;;22.30;51.00;;;;;;5098478;28;1925;-42
2022/03/15 11:22:54;;;;;;;;;;;22.30;50.90;;;;;;5099017;28;1093;-42
2022/03/15 11:25:21;;;;;;;;;;;22.30;51.00;;;;;;5099781;28;1918;-42
2022/03/15 11:27:51;;;;;;;;;;;22.30;51.00;;;;;;5098819;28;997;-46
2022/03/15 11:30:19;;;;;;;;;;;22.30;51.10;;;;;;5099013;28;1015;-42
2022/03/15 11:32:47;;;;;;;;;;;22.40;50.90;;;;;;5098670;28;983;-42
2022/03/15 11:35:18;;;;;;;;;;;22.30;50.90;;;;;;5096247;28;996;-42
2022/03/15 11:37:45;;;;;;;;;;;22.30;51.00;;;;;;5097152;28;937;-44
2022/03/15 11:40:13;;;;;;;;;;;22.40;51.00;;;;;;5094877;28;1902;-42
2022/03/15 11:42:42;;;;;;;;;;;22.40;51.00;;;;;;5096046;28;981;-44
2022/03/15 11:45:13;;;;;;;;;;;22.40;50.90;;;;;;5095744;28;992;-43
2022/03/15 11:47:44;;;;;;;;;;;22.40;51.00;;;;;;5095671;28;1026;-42
2022/03/15 11:50:19;;;;;;;;;;;22.30;51.00;;;;;;5053403;28;1024;-42
2022/03/15 11:52:51;;;;;;;;;;;22.30;51.10;;;;;;5045208;28;1464;-44
2022/03/15 11:55:23;;;;;;;;;;;22.30;51.10;;;;;;5040934;28;865;-42
2022/03/15 11:57:51;;;;;;;;;;;22.30;51.00;;;;;;5055330;28;1007;-43
2022/03/15 12:00:37;;;;;;;;;;;22.30;51.00;;;;;;5056807;28;1981;-46
2022/03/15 12:03:06;;;;;;;;;;;22.30;51.10;;;;;;5055955;28;865;-42
2022/03/15 12:05:43;;;;;;;;;;;22.30;51.00;;;;;;5056292;28;948;-44
2022/03/15 12:08:12;;;;;;;;;;;22.30;51.10;;;;;;5057338;28;980;-41
2022/03/15 12:10:41;;;;;;;;;;;22.30;51.10;;;;;;5058312;28;1042;-42
2022/03/15 12:13:09;;;;;;;;;;;22.30;51.10;;;;;;5058905;28;996;-43
2022/03/15 12:15:36;;;;;;;;;;;22.30;51.20;;;;;;5058628;28;941;-42
2022/03/15 12:18:18;;;;;;;;;;;22.30;51.10;;;;;;5057279;28;996;-42
2022/03/15 12:20:50;;;;;;;;;;;22.30;51.10;;;;;;5055436;28;1980;-44
2022/03/15 12:23:19;;;;;;;;;;;22.30;50.90;;;;;;5055407;28;1151;-43
2022/03/15 12:25:51;;;;;;;;;;;22.30;51.00;;;;;;5057317;28;1041;-42
2022/03/15 12:28:26;;;;;;;;;;;22.30;51.10;;;;;;5057014;28;1128;-42
2022/03/15 12:30:53;;;;;;;;;;;22.30;51.20;;;;;;5057178;28;973;-42
2022/03/15 12:33:25;;;;;;;;;;;22.30;51.20;;;;;;5056376;28;947;-42
2022/03/15 12:35:58;;;;;;;;;;;22.30;51.10;;;;;;5056739;28;1378;-45
2022/03/15 12:38:32;;;;;;;;;;;22.30;51.10;;;;;;5055373;28;943;-44
2022/03/15 12:41:00;;;;;;;;;;;22.30;51.10;;;;;;5057170;28;1983;-44
2022/03/15 12:43:27;;;;;;;;;;;22.30;51.00;;;;;;5055699;28;924;-42
2022/03/15 12:45:54;;;;;;;;;;;22.30;51.10;;;;;;5055966;28;976;-42
2022/03/15 12:48:29;;;;;;;;;;;22.30;51.10;;;;;;5067306;28;1028;-42
2022/03/15 12:51:01;;;;;;;;;;;22.30;51.10;;;;;;5096184;28;961;-42
2022/03/15 12:53:38;;;;;;;;;;;22.30;51.10;;;;;;5096226;28;999;-43
2022/03/15 12:56:05;;;;;;;;;;;22.30;51.10;;;;;;5095824;28;1091;-44
2022/03/15 12:58:32;;;;;;;;;;;22.30;51.10;;;;;;5095584;28;940;-42
2022/03/15 13:00:59;;;;;;;;;;;22.30;52.30;;;;;;5094955;28;1893;-44
2022/03/15 13:03:26;;;;;;;;;;;22.30;51.00;;;;;;5096918;28;889;-42
2022/03/15 13:05:53;;;;;;;;;;;22.30;51.10;;;;;;5095683;28;993;-45
2022/03/15 13:08:21;;;;;;;;;;;22.30;51.10;;;;;;5095927;28;837;-43
2022/03/15 13:10:49;;;;;;;;;;;22.30;51.10;;;;;;5096314;28;900;-45
2022/03/15 13:13:27;;;;;;;;;;;22.40;50.90;;;;;;5097058;28;969;-43
2022/03/15 13:15:57;;;;;;;;;;;22.40;51.10;;;;;;5095845;28;989;-43
2022/03/15 13:18:24;;;;;;;;;;;22.30;51.10;;;;;;5095862;28;1047;-42
2022/03/15 13:20:54;;;;;;;;;;;22.30;51.00;;;;;;5098107;28;1898;-42
2022/03/15 13:23:22;;;;;;;;;;;22.30;51.10;;;;;;5097629;28;977;-45
2022/03/15 13:25:50;;;;;;;;;;;22.30;51.10;;;;;;5098688;28;1011;-42
2022/03/15 13:28:22;;;;;;;;;;;22.30;51.00;;;;;;5094569;28;955;-42
2022/03/15 13:30:50;;;;;;;;;;;22.30;50.90;;;;;;5093575;28;1005;-42
2022/03/15 13:33:28;;;;;;;;;;;22.40;50.90;;;;;;5093828;28;942;-42
2022/03/15 13:35:58;;;;;;;;;;;22.40;50.90;;;;;;5090077;28;1945;-45
2022/03/15 13:38:26;;;;;;;;;;;22.40;50.90;;;;;;5076137;28;1110;-44
2022/03/15 13:40:53;;;;;;;;;;;22.30;50.90;;;;;;5076758;28;1906;-44
2022/03/15 13:43:22;;;;;;;;;;;22.30;50.90;;;;;;5075046;28;996;-44
2022/03/15 13:45:49;;;;;;;;;;;22.30;50.80;;;;;;5074066;28;1313;-43
2022/03/15 13:48:25;;;;;;;;;;;22.40;50.80;;;;;;5076613;28;1051;-42
2022/03/15 13:50:57;;;;;;;;;;;22.40;50.80;;;;;;5076585;28;1360;-44
2022/03/15 13:53:26;;;;;;;;;;;22.40;51.80;;;;;;5074901;28;936;-45
2022/03/15 13:55:53;;;;;;;;;;;22.40;50.70;;;;;;5075279;28;945;-42
2022/03/15 13:58:28;;;;;;;;;;;22.40;50.50;;;;;;5073077;28;1358;-41
2022/03/15 14:01:03;;;;;;;;;;;22.40;50.50;;;;;;5074408;28;941;-41
2022/03/15 14:03:32;;;;;;;;;;;22.40;50.50;;;;;;5073491;28;932;-41
2022/03/15 14:06:02;;;;;;;;;;;22.40;50.50;;;;;;5075482;28;1035;-41
2022/03/15 14:08:41;;;;;;;;;;;22.40;50.50;;;;;;5075681;28;1024;-43
2022/03/15 14:11:09;;;;;;;;;;;22.50;50.40;;;;;;5074753;28;1047;-41
2022/03/15 14:13:36;;;;;;;;;;;22.50;50.50;;;;;;5074060;28;1016;-41
2022/03/15 14:16:07;;;;;;;;;;;22.50;50.40;;;;;;5074533;28;973;-41
2022/03/15 14:18:34;;;;;;;;;;;22.50;50.40;;;;;;4972618;28;1023;-42
2022/03/15 14:21:03;;;;;;;;;;;22.50;50.40;;;;;;4973740;28;1914;-42
2022/03/15 14:23:33;;;;;;;;;;;22.50;50.40;;;;;;4973386;28;843;-42
2022/03/15 14:26:04;;;;;;;;;;;22.50;50.40;;;;;;4975994;28;1357;-42
2022/03/15 14:28:31;;;;;;;;;;;22.50;50.40;;;;;;5002804;28;1000;-42
2022/03/15 14:31:01;;;;;;;;;;;22.50;50.40;;;;;;5074080;28;1043;-41
2022/03/15 14:33:28;;;;;;;;;;;22.50;50.40;;;;;;5071687;28;929;-41
2022/03/15 14:35:59;;;;;;;;;;;22.50;50.40;;;;;;5072906;28;980;-41
2022/03/15 14:38:26;;;;;;;;;;;22.50;50.50;;;;;;5073922;28;885;-41
2022/03/15 14:40:56;;;;;;;;;;;22.50;50.50;;;;;;5074176;28;1002;-41
2022/03/15 14:43:27;;;;;;;;;;;22.50;50.50;;;;;;5074350;28;1910;-42